Pagrindinis puslapis
METAR-TAF:

METAR-TAF

Oro uostai :

St. George, Aliaska, Jungtinės Amerikos Valstijos

platuma: 56-34-43N, ilguma: 169-39-41W, Aukštis: 38 m

Dabartinis oras

Ataskaita buvo paskelbta 22 minutes, ne 06:53 UTC
Vėjas 4 kt iš Šiaurės Rytų
Temperatūra -1°C
Drėgmė 93%
Slėgis 1013 hPa
Matomumas: 16.1 km
Apsiniaukę ne aukštis 6000 ft

METAR: PAPB 280653Z AUTO 05004KT 10SM OVC060 M01/M02 A2992 RMK AO2 SLP121 T10111017 TSNO $

Laikas: 22:15 (07:15 UTC)


TAF: trūkstamas

Orai ataskaitas ir orų prognozės (METAR, TAF).

turimą stotys yra geltonos ir raudonos taškus žemėlapyje.

Perkelti pele per norėdami pamatyti stoties vardą.

Tada spustelėkite, norėdami matyti oro stebėjimo ir prognozės.

Norėdami pakeisti žemėlapį: spustelėkite ant žalios mygtukų su juodo kryžiaus žemyn,; žalią mygtuką su brūkšneliu, jei norite nutolinti; arba žalių rodyklių gretimoms žemėlapius.


METAR-TAF: